Portada
METAR-TAF:

METAR-TAF

Aeroports :

Weipa, Austràlia

latitud: 12-40-43S, longitud: 141-55-31E, altitud: 19 m

Observació

L'informe es va fer fa 45 minuts, a les 19:00 UTC
Vent 9 kt del Oest
Temperatura 28°C
Humitat 89%
Pressió 1005 hPa
Visibilitat 10 km o més
Cel ennuvolat a una alçada de 1400 ft
Cel ennuvolat a una alçada de 1900 ft
Cel cobert a una alçada de 2700 ft

METAR: YBWP 021900Z AUTO 28009KT 9999 // BKN014 BKN019 OVC027 28/26 Q1005

Hora: 05:45 (19:45 UTC)


TAF: manca

Observacions i pronòstics meteorològics de més de 4000 aeroports (METAR i TAF).

Les estacions disponibles són els punts grocs i vermells al mapa.

Posi el ratolí al punt desitjat per veure el nom de l'estació.

Feu clic per veure les observacions i els pronòstics meteorològics.

Per canviar el mapa: feu clic els botons verds amb una creu de color negre per apropar; al botó verd amb un guió per allunyar la imatge; o en les fletxes verdes per a mapes adjacents.


METAR-TAF: